sensor_id;sensor_type;location;lat;lon;timestamp;P1;durP1;ratioP1;P2;durP2;ratioP2
75246;SDS011;63844;50.042;19.224;2023-10-13T00:01:06;15.70;;;9.00;;
75246;SDS011;63844;50.042;19.224;2023-10-13T00:02:48;17.00;;;9.00;;
75246;SDS011;63844;50.042;19.224;2023-10-13T00:04:25;15.50;;;9.10;;
75246;SDS011;63844;50.042;19.224;2023-10-13T00:06:02;16.10;;;10.10;;
75246;SDS011;63844;50.042;19.224;2023-10-13T00:07:39;17.50;;;10.10;;
75246;SDS011;63844;50.042;19.224;2023-10-13T00:09:15;18.60;;;11.00;;
75246;SDS011;63844;50.042;19.224;2023-10-13T00:10:52;16.90;;;9.70;;
75246;SDS011;63844;50.042;19.224;2023-10-13T00:12:29;20.30;;;10.60;;
75246;SDS011;63844;50.042;19.224;2023-10-13T00:14:07;17.80;;;10.80;;
75246;SDS011;63844;50.042;19.224;2023-10-13T00:15:46;19.50;;;11.30;;
75246;SDS011;63844;50.042;19.224;2023-10-13T00:17:36;21.60;;;12.60;;
75246;SDS011;63844;50.042;19.224;2023-10-13T00:19:14;19.80;;;11.60;;
75246;SDS011;63844;50.042;19.224;2023-10-13T00:20:51;19.50;;;11.30;;
75246;SDS011;63844;50.042;19.224;2023-10-13T00:22:27;21.70;;;12.20;;
75246;SDS011;63844;50.042;19.224;2023-10-13T00:24:07;20.70;;;12.00;;
75246;SDS011;63844;50.042;19.224;2023-10-13T00:25:49;21.20;;;12.50;;
75246;SDS011;63844;50.042;19.224;2023-10-13T00:27:35;19.70;;;11.20;;
75246;SDS011;63844;50.042;19.224;2023-10-13T00:29:17;20.20;;;11.70;;
75246;SDS011;63844;50.042;19.224;2023-10-13T00:30:54;22.40;;;12.50;;
75246;SDS011;63844;50.042;19.224;2023-10-13T00:32:37;21.60;;;12.30;;
75246;SDS011;63844;50.042;19.224;2023-10-13T00:34:15;21.10;;;12.60;;
75246;SDS011;63844;50.042;19.224;2023-10-13T00:35:55;19.10;;;12.40;;
75246;SDS011;63844;50.042;19.224;2023-10-13T00:37:34;20.70;;;12.20;;
75246;SDS011;63844;50.042;19.224;2023-10-13T00:39:18;19.40;;;11.80;;
75246;SDS011;63844;50.042;19.224;2023-10-13T00:40:55;21.00;;;12.50;;
75246;SDS011;63844;50.042;19.224;2023-10-13T00:42:31;21.00;;;12.20;;
75246;SDS011;63844;50.042;19.224;2023-10-13T00:44:27;21.80;;;12.20;;
75246;SDS011;63844;50.042;19.224;2023-10-13T00:46:14;19.30;;;12.10;;
75246;SDS011;63844;50.042;19.224;2023-10-13T00:47:55;21.50;;;12.50;;
75246;SDS011;63844;50.042;19.224;2023-10-13T00:49:37;16.70;;;11.60;;
75246;SDS011;63844;50.042;19.224;2023-10-13T00:51:16;18.40;;;12.20;;
75246;SDS011;63844;50.042;19.224;2023-10-13T00:53:08;20.30;;;12.10;;
75246;SDS011;63844;50.042;19.224;2023-10-13T00:54:45;19.20;;;12.00;;
75246;SDS011;63844;50.042;19.224;2023-10-13T00:56:22;21.10;;;12.30;;
75246;SDS011;63844;50.042;19.224;2023-10-13T00:58:03;20.30;;;12.40;;
75246;SDS011;63844;50.042;19.224;2023-10-13T00:59:39;20.00;;;12.30;;
75246;SDS011;63844;50.042;19.224;2023-10-13T01:01:19;23.50;;;13.70;;
75246;SDS011;63844;50.042;19.224;2023-10-13T01:03:05;23.00;;;13.40;;
75246;SDS011;63844;50.042;19.224;2023-10-13T01:04:43;20.10;;;12.30;;
75246;SDS011;63844;50.042;19.224;2023-10-13T01:06:23;21.40;;;12.80;;
75246;SDS011;63844;50.042;19.224;2023-10-13T01:08:01;21.00;;;12.10;;
75246;SDS011;63844;50.042;19.224;2023-10-13T01:09:41;19.70;;;11.80;;
75246;SDS011;63844;50.042;19.224;2023-10-13T01:11:18;21.60;;;12.30;;
75246;SDS011;63844;50.042;19.224;2023-10-13T01:12:55;20.20;;;12.30;;
75246;SDS011;63844;50.042;19.224;2023-10-13T01:14:32;20.40;;;12.40;;
75246;SDS011;63844;50.042;19.224;2023-10-13T01:16:09;20.70;;;11.90;;
75246;SDS011;63844;50.042;19.224;2023-10-13T01:17:46;21.20;;;12.50;;
75246;SDS011;63844;50.042;19.224;2023-10-13T01:19:23;19.60;;;12.20;;
75246;SDS011;63844;50.042;19.224;2023-10-13T01:21:04;20.10;;;12.60;;
75246;SDS011;63844;50.042;19.224;2023-10-13T01:22:41;20.70;;;12.20;;
75246;SDS011;63844;50.042;19.224;2023-10-13T01:24:17;17.40;;;10.70;;
75246;SDS011;63844;50.042;19.224;2023-10-13T01:25:56;19.00;;;11.40;;
75246;SDS011;63844;50.042;19.224;2023-10-13T01:27:39;20.40;;;11.60;;
75246;SDS011;63844;50.042;19.224;2023-10-13T01:29:16;18.10;;;10.60;;
75246;SDS011;63844;50.042;19.224;2023-10-13T01:30:55;19.70;;;11.90;;
75246;SDS011;63844;50.042;19.224;2023-10-13T01:32:31;20.60;;;11.90;;
75246;SDS011;63844;50.042;19.224;2023-10-13T01:34:07;17.00;;;11.60;;
75246;SDS011;63844;50.042;19.224;2023-10-13T01:35:44;22.60;;;12.10;;
75246;SDS011;63844;50.042;19.224;2023-10-13T01:37:23;19.30;;;11.90;;
75246;SDS011;63844;50.042;19.224;2023-10-13T01:39:00;23.40;;;13.40;;
75246;SDS011;63844;50.042;19.224;2023-10-13T01:40:37;24.90;;;13.40;;
75246;SDS011;63844;50.042;19.224;2023-10-13T01:42:14;18.20;;;11.90;;
75246;SDS011;63844;50.042;19.224;2023-10-13T01:43:57;18.60;;;11.60;;
75246;SDS011;63844;50.042;19.224;2023-10-13T01:45:34;17.40;;;11.20;;
75246;SDS011;63844;50.042;19.224;2023-10-13T01:47:10;17.20;;;11.70;;
75246;SDS011;63844;50.042;19.224;2023-10-13T01:48:48;19.20;;;11.40;;
75246;SDS011;63844;50.042;19.224;2023-10-13T01:50:25;18.10;;;12.00;;
75246;SDS011;63844;50.042;19.224;2023-10-13T01:52:05;18.80;;;11.10;;
75246;SDS011;63844;50.042;19.224;2023-10-13T01:53:42;18.60;;;10.90;;
75246;SDS011;63844;50.042;19.224;2023-10-13T01:55:18;20.70;;;10.60;;
75246;SDS011;63844;50.042;19.224;2023-10-13T01:56:56;19.70;;;11.90;;
75246;SDS011;63844;50.042;19.224;2023-10-13T01:58:32;17.30;;;10.70;;
75246;SDS011;63844;50.042;19.224;2023-10-13T02:00:10;16.00;;;10.00;;
75246;SDS011;63844;50.042;19.224;2023-10-13T02:01:55;17.20;;;10.40;;
75246;SDS011;63844;50.042;19.224;2023-10-13T02:03:34;17.10;;;11.90;;
75246;SDS011;63844;50.042;19.224;2023-10-13T02:05:13;19.50;;;11.00;;
75246;SDS011;63844;50.042;19.224;2023-10-13T02:06:52;16.40;;;10.30;;
75246;SDS011;63844;50.042;19.224;2023-10-13T02:08:28;16.00;;;9.50;;
75246;SDS011;63844;50.042;19.224;2023-10-13T02:10:05;17.20;;;10.00;;
75246;SDS011;63844;50.042;19.224;2023-10-13T02:11:43;15.10;;;8.90;;
75246;SDS011;63844;50.042;19.224;2023-10-13T02:13:23;15.80;;;9.50;;
75246;SDS011;63844;50.042;19.224;2023-10-13T02:15:01;13.10;;;9.20;;
75246;SDS011;63844;50.042;19.224;2023-10-13T02:16:40;15.00;;;9.40;;
75246;SDS011;63844;50.042;19.224;2023-10-13T02:18:18;19.10;;;10.00;;
75246;SDS011;63844;50.042;19.224;2023-10-13T02:20:10;19.70;;;11.10;;
75246;SDS011;63844;50.042;19.224;2023-10-13T02:21:50;14.60;;;9.90;;
75246;SDS011;63844;50.042;19.224;2023-10-13T02:23:34;20.20;;;10.00;;
75246;SDS011;63844;50.042;19.224;2023-10-13T02:25:15;19.30;;;10.60;;
75246;SDS011;63844;50.042;19.224;2023-10-13T02:26:54;17.30;;;10.60;;
75246;SDS011;63844;50.042;19.224;2023-10-13T02:28:32;18.80;;;10.70;;
75246;SDS011;63844;50.042;19.224;2023-10-13T02:30:11;19.40;;;11.00;;
75246;SDS011;63844;50.042;19.224;2023-10-13T02:31:50;17.10;;;10.30;;
75246;SDS011;63844;50.042;19.224;2023-10-13T02:33:33;19.30;;;11.70;;
75246;SDS011;63844;50.042;19.224;2023-10-13T02:35:10;18.30;;;11.60;;
75246;SDS011;63844;50.042;19.224;2023-10-13T02:36:51;20.60;;;12.00;;
75246;SDS011;63844;50.042;19.224;2023-10-13T02:38:30;14.80;;;9.70;;
75246;SDS011;63844;50.042;19.224;2023-10-13T02:40:16;16.00;;;11.10;;
75246;SDS011;63844;50.042;19.224;2023-10-13T02:43:35;19.80;;;9.80;;
75246;SDS011;63844;50.042;19.224;2023-10-13T02:45:12;18.20;;;11.00;;
75246;SDS011;63844;50.042;19.224;2023-10-13T02:46:49;22.30;;;11.20;;
75246;SDS011;63844;50.042;19.224;2023-10-13T02:48:26;17.20;;;10.70;;
75246;SDS011;63844;50.042;19.224;2023-10-13T02:50:16;17.60;;;10.20;;
75246;SDS011;63844;50.042;19.224;2023-10-13T02:51:54;15.00;;;9.70;;
75246;SDS011;63844;50.042;19.224;2023-10-13T02:53:35;17.60;;;10.30;;
75246;SDS011;63844;50.042;19.224;2023-10-13T02:55:11;16.70;;;10.20;;
75246;SDS011;63844;50.042;19.224;2023-10-13T02:56:51;16.20;;;10.20;;
75246;SDS011;63844;50.042;19.224;2023-10-13T02:58:35;16.10;;;10.50;;
75246;SDS011;63844;50.042;19.224;2023-10-13T03:00:14;15.10;;;9.60;;
75246;SDS011;63844;50.042;19.224;2023-10-13T03:01:52;15.30;;;9.90;;
75246;SDS011;63844;50.042;19.224;2023-10-13T03:03:29;15.80;;;10.30;;
75246;SDS011;63844;50.042;19.224;2023-10-13T03:05:06;14.80;;;10.20;;
75246;SDS011;63844;50.042;19.224;2023-10-13T03:06:45;14.50;;;10.10;;
75246;SDS011;63844;50.042;19.224;2023-10-13T03:08:23;14.60;;;10.00;;
75246;SDS011;63844;50.042;19.224;2023-10-13T03:10:03;16.90;;;10.70;;
75246;SDS011;63844;50.042;19.224;2023-10-13T03:11:47;15.40;;;9.80;;
75246;SDS011;63844;50.042;19.224;2023-10-13T03:13:25;15.90;;;9.70;;
75246;SDS011;63844;50.042;19.224;2023-10-13T03:15:03;14.10;;;10.10;;
75246;SDS011;63844;50.042;19.224;2023-10-13T03:16:50;14.40;;;9.90;;
75246;SDS011;63844;50.042;19.224;2023-10-13T03:18:48;14.00;;;9.70;;
75246;SDS011;63844;50.042;19.224;2023-10-13T03:20:30;13.00;;;8.70;;
75246;SDS011;63844;50.042;19.224;2023-10-13T03:22:08;15.60;;;9.90;;
75246;SDS011;63844;50.042;19.224;2023-10-13T03:23:47;14.80;;;10.30;;
75246;SDS011;63844;50.042;19.224;2023-10-13T03:25:24;23.00;;;12.60;;
75246;SDS011;63844;50.042;19.224;2023-10-13T03:27:13;18.70;;;10.30;;
75246;SDS011;63844;50.042;19.224;2023-10-13T03:28:58;14.50;;;9.70;;
75246;SDS011;63844;50.042;19.224;2023-10-13T03:30:35;14.80;;;9.30;;
75246;SDS011;63844;50.042;19.224;2023-10-13T03:32:12;16.70;;;9.80;;
75246;SDS011;63844;50.042;19.224;2023-10-13T03:33:52;15.30;;;9.90;;
75246;SDS011;63844;50.042;19.224;2023-10-13T03:35:33;16.70;;;10.70;;
75246;SDS011;63844;50.042;19.224;2023-10-13T03:37:13;14.70;;;10.00;;
75246;SDS011;63844;50.042;19.224;2023-10-13T03:39:13;14.90;;;9.10;;
75246;SDS011;63844;50.042;19.224;2023-10-13T03:40:50;13.80;;;9.90;;
75246;SDS011;63844;50.042;19.224;2023-10-13T03:42:43;19.90;;;11.10;;
75246;SDS011;63844;50.042;19.224;2023-10-13T03:44:25;16.90;;;11.30;;
75246;SDS011;63844;50.042;19.224;2023-10-13T03:46:06;16.20;;;10.10;;
75246;SDS011;63844;50.042;19.224;2023-10-13T03:47:45;14.90;;;10.10;;
75246;SDS011;63844;50.042;19.224;2023-10-13T03:49:22;16.20;;;10.40;;
75246;SDS011;63844;50.042;19.224;2023-10-13T03:51:02;17.80;;;10.60;;
75246;SDS011;63844;50.042;19.224;2023-10-13T03:52:46;17.20;;;10.30;;
75246;SDS011;63844;50.042;19.224;2023-10-13T03:54:24;15.80;;;10.30;;
75246;SDS011;63844;50.042;19.224;2023-10-13T03:56:06;15.50;;;10.20;;
75246;SDS011;63844;50.042;19.224;2023-10-13T03:57:51;14.20;;;10.10;;
75246;SDS011;63844;50.042;19.224;2023-10-13T03:59:27;19.90;;;11.40;;
75246;SDS011;63844;50.042;19.224;2023-10-13T04:01:11;18.20;;;10.70;;
75246;SDS011;63844;50.042;19.224;2023-10-13T04:02:52;17.20;;;11.00;;
75246;SDS011;63844;50.042;19.224;2023-10-13T04:04:49;14.30;;;10.10;;
75246;SDS011;63844;50.042;19.224;2023-10-13T04:06:30;15.10;;;9.90;;
75246;SDS011;63844;50.042;19.224;2023-10-13T04:08:22;19.10;;;11.00;;
75246;SDS011;63844;50.042;19.224;2023-10-13T04:10:07;16.70;;;10.80;;
75246;SDS011;63844;50.042;19.224;2023-10-13T04:12:03;16.60;;;10.60;;
75246;SDS011;63844;50.042;19.224;2023-10-13T04:13:41;19.70;;;11.50;;
75246;SDS011;63844;50.042;19.224;2023-10-13T04:15:50;16.90;;;10.30;;
75246;SDS011;63844;50.042;19.224;2023-10-13T04:17:45;16.50;;;10.40;;
75246;SDS011;63844;50.042;19.224;2023-10-13T04:19:22;15.20;;;10.20;;
75246;SDS011;63844;50.042;19.224;2023-10-13T04:21:05;14.60;;;10.60;;
75246;SDS011;63844;50.042;19.224;2023-10-13T04:22:55;14.90;;;9.40;;
75246;SDS011;63844;50.042;19.224;2023-10-13T04:24:34;15.70;;;10.80;;
75246;SDS011;63844;50.042;19.224;2023-10-13T04:26:14;18.20;;;10.60;;
75246;SDS011;63844;50.042;19.224;2023-10-13T04:27:57;15.90;;;10.60;;
75246;SDS011;63844;50.042;19.224;2023-10-13T04:29:50;13.20;;;9.60;;
75246;SDS011;63844;50.042;19.224;2023-10-13T04:31:46;16.70;;;9.90;;
75246;SDS011;63844;50.042;19.224;2023-10-13T04:33:32;14.80;;;10.70;;
75246;SDS011;63844;50.042;19.224;2023-10-13T04:35:29;14.80;;;10.40;;
75246;SDS011;63844;50.042;19.224;2023-10-13T04:37:12;16.30;;;10.90;;
75246;SDS011;63844;50.042;19.224;2023-10-13T04:39:09;16.90;;;11.30;;
75246;SDS011;63844;50.042;19.224;2023-10-13T04:40:45;15.50;;;10.50;;
75246;SDS011;63844;50.042;19.224;2023-10-13T04:42:35;17.60;;;10.90;;
75246;SDS011;63844;50.042;19.224;2023-10-13T04:44:29;23.30;;;11.80;;
75246;SDS011;63844;50.042;19.224;2023-10-13T04:46:06;19.70;;;11.40;;
75246;SDS011;63844;50.042;19.224;2023-10-13T04:48:11;18.80;;;11.50;;
75246;SDS011;63844;50.042;19.224;2023-10-13T04:49:57;16.60;;;11.10;;
75246;SDS011;63844;50.042;19.224;2023-10-13T04:51:37;20.50;;;12.00;;
75246;SDS011;63844;50.042;19.224;2023-10-13T04:53:29;17.40;;;12.10;;
75246;SDS011;63844;50.042;19.224;2023-10-13T04:55:06;22.40;;;12.30;;
75246;SDS011;63844;50.042;19.224;2023-10-13T04:57:09;19.10;;;11.60;;
75246;SDS011;63844;50.042;19.224;2023-10-13T04:58:59;19.10;;;11.90;;
75246;SDS011;63844;50.042;19.224;2023-10-13T05:00:53;19.90;;;12.30;;
75246;SDS011;63844;50.042;19.224;2023-10-13T05:02:49;17.90;;;12.30;;
75246;SDS011;63844;50.042;19.224;2023-10-13T05:04:38;21.30;;;13.70;;
75246;SDS011;63844;50.042;19.224;2023-10-13T05:06:36;22.10;;;11.80;;
75246;SDS011;63844;50.042;19.224;2023-10-13T05:08:18;19.40;;;12.90;;
75246;SDS011;63844;50.042;19.224;2023-10-13T05:10:13;19.30;;;13.00;;
75246;SDS011;63844;50.042;19.224;2023-10-13T05:12:08;21.10;;;13.50;;
75246;SDS011;63844;50.042;19.224;2023-10-13T05:14:03;20.60;;;13.40;;
75246;SDS011;63844;50.042;19.224;2023-10-13T05:17:53;18.60;;;12.50;;
75246;SDS011;63844;50.042;19.224;2023-10-13T05:19:48;21.40;;;15.40;;
75246;SDS011;63844;50.042;19.224;2023-10-13T05:23:39;21.50;;;12.90;;
75246;SDS011;63844;50.042;19.224;2023-10-13T05:25:37;19.70;;;12.70;;
75246;SDS011;63844;50.042;19.224;2023-10-13T05:27:33;21.80;;;12.90;;
75246;SDS011;63844;50.042;19.224;2023-10-13T05:29:28;20.80;;;13.30;;
75246;SDS011;63844;50.042;19.224;2023-10-13T05:31:23;18.30;;;12.40;;
75246;SDS011;63844;50.042;19.224;2023-10-13T05:35:13;18.80;;;12.10;;
75246;SDS011;63844;50.042;19.224;2023-10-13T05:37:10;19.40;;;12.80;;
75246;SDS011;63844;50.042;19.224;2023-10-13T05:39:05;19.10;;;12.10;;
75246;SDS011;63844;50.042;19.224;2023-10-13T05:41:04;20.20;;;12.30;;
75246;SDS011;63844;50.042;19.224;2023-10-13T05:43:00;19.20;;;13.20;;
75246;SDS011;63844;50.042;19.224;2023-10-13T05:46:52;17.90;;;10.80;;
75246;SDS011;63844;50.042;19.224;2023-10-13T05:48:49;18.50;;;11.90;;
75246;SDS011;63844;50.042;19.224;2023-10-13T05:50:34;19.10;;;12.70;;
75246;SDS011;63844;50.042;19.224;2023-10-13T05:52:30;16.80;;;11.20;;
75246;SDS011;63844;50.042;19.224;2023-10-13T05:54:39;19.30;;;12.00;;
75246;SDS011;63844;50.042;19.224;2023-10-13T05:56:34;19.40;;;12.90;;
75246;SDS011;63844;50.042;19.224;2023-10-13T05:58:29;19.30;;;11.80;;
75246;SDS011;63844;50.042;19.224;2023-10-13T06:00:24;20.00;;;12.60;;
75246;SDS011;63844;50.042;19.224;2023-10-13T06:02:19;19.60;;;12.50;;
75246;SDS011;63844;50.042;19.224;2023-10-13T06:04:15;22.10;;;13.80;;
75246;SDS011;63844;50.042;19.224;2023-10-13T06:06:10;18.40;;;12.00;;
75246;SDS011;63844;50.042;19.224;2023-10-13T06:08:05;18.40;;;12.20;;
75246;SDS011;63844;50.042;19.224;2023-10-13T06:11:56;16.70;;;11.30;;
75246;SDS011;63844;50.042;19.224;2023-10-13T06:13:51;21.00;;;11.90;;
75246;SDS011;63844;50.042;19.224;2023-10-13T06:15:46;20.80;;;13.40;;
75246;SDS011;63844;50.042;19.224;2023-10-13T06:17:41;19.10;;;13.40;;
75246;SDS011;63844;50.042;19.224;2023-10-13T06:19:36;18.30;;;13.00;;
75246;SDS011;63844;50.042;19.224;2023-10-13T06:23:26;17.30;;;10.20;;
75246;SDS011;63844;50.042;19.224;2023-10-13T06:25:22;19.10;;;11.90;;
75246;SDS011;63844;50.042;19.224;2023-10-13T06:27:17;18.50;;;12.90;;
75246;SDS011;63844;50.042;19.224;2023-10-13T06:29:12;23.60;;;14.30;;
75246;SDS011;63844;50.042;19.224;2023-10-13T06:30:56;21.80;;;13.70;;
75246;SDS011;63844;50.042;19.224;2023-10-13T06:32:33;20.40;;;15.20;;
75246;SDS011;63844;50.042;19.224;2023-10-13T06:34:10;22.10;;;14.30;;
75246;SDS011;63844;50.042;19.224;2023-10-13T06:35:51;20.20;;;13.90;;
75246;SDS011;63844;50.042;19.224;2023-10-13T06:37:32;19.30;;;12.50;;
75246;SDS011;63844;50.042;19.224;2023-10-13T06:39:10;20.60;;;13.90;;
75246;SDS011;63844;50.042;19.224;2023-10-13T06:42:56;17.90;;;12.60;;
75246;SDS011;63844;50.042;19.224;2023-10-13T06:44:47;20.20;;;13.40;;
75246;SDS011;63844;50.042;19.224;2023-10-13T06:46:24;18.60;;;13.40;;
75246;SDS011;63844;50.042;19.224;2023-10-13T06:48:07;20.20;;;13.50;;
75246;SDS011;63844;50.042;19.224;2023-10-13T06:49:48;21.90;;;13.80;;
75246;SDS011;63844;50.042;19.224;2023-10-13T06:51:27;21.70;;;13.90;;
75246;SDS011;63844;50.042;19.224;2023-10-13T06:53:07;23.90;;;13.30;;
75246;SDS011;63844;50.042;19.224;2023-10-13T06:54:44;21.70;;;13.60;;
75246;SDS011;63844;50.042;19.224;2023-10-13T06:56:20;20.70;;;13.30;;
75246;SDS011;63844;50.042;19.224;2023-10-13T06:58:06;21.90;;;12.80;;
75246;SDS011;63844;50.042;19.224;2023-10-13T06:59:43;20.50;;;13.90;;
75246;SDS011;63844;50.042;19.224;2023-10-13T07:01:19;21.30;;;13.40;;
75246;SDS011;63844;50.042;19.224;2023-10-13T07:03:00;20.40;;;15.40;;
75246;SDS011;63844;50.042;19.224;2023-10-13T07:04:43;23.00;;;13.50;;
75246;SDS011;63844;50.042;19.224;2023-10-13T07:06:20;26.50;;;14.60;;
75246;SDS011;63844;50.042;19.224;2023-10-13T07:07:56;22.40;;;13.20;;
75246;SDS011;63844;50.042;19.224;2023-10-13T07:09:33;21.90;;;13.70;;
75246;SDS011;63844;50.042;19.224;2023-10-13T07:11:12;18.70;;;12.50;;
75246;SDS011;63844;50.042;19.224;2023-10-13T07:13:09;21.30;;;12.90;;
75246;SDS011;63844;50.042;19.224;2023-10-13T07:14:46;16.40;;;10.60;;
75246;SDS011;63844;50.042;19.224;2023-10-13T07:16:28;20.00;;;10.90;;
75246;SDS011;63844;50.042;19.224;2023-10-13T07:18:14;17.50;;;11.40;;
75246;SDS011;63844;50.042;19.224;2023-10-13T07:19:59;19.20;;;11.60;;
75246;SDS011;63844;50.042;19.224;2023-10-13T07:21:54;18.30;;;11.40;;
75246;SDS011;63844;50.042;19.224;2023-10-13T07:23:53;16.40;;;10.40;;
75246;SDS011;63844;50.042;19.224;2023-10-13T07:25:55;16.20;;;9.70;;
75246;SDS011;63844;50.042;19.224;2023-10-13T07:27:38;16.60;;;10.20;;
75246;SDS011;63844;50.042;19.224;2023-10-13T07:29:15;15.50;;;10.70;;
75246;SDS011;63844;50.042;19.224;2023-10-13T07:30:51;17.90;;;9.20;;
75246;SDS011;63844;50.042;19.224;2023-10-13T07:32:30;14.80;;;8.30;;
75246;SDS011;63844;50.042;19.224;2023-10-13T07:34:10;13.30;;;8.50;;
75246;SDS011;63844;50.042;19.224;2023-10-13T07:36:03;16.30;;;9.20;;
75246;SDS011;63844;50.042;19.224;2023-10-13T07:37:52;18.50;;;9.10;;
75246;SDS011;63844;50.042;19.224;2023-10-13T07:39:30;16.30;;;9.20;;
75246;SDS011;63844;50.042;19.224;2023-10-13T07:41:10;17.00;;;9.60;;
75246;SDS011;63844;50.042;19.224;2023-10-13T07:42:52;14.00;;;8.30;;
75246;SDS011;63844;50.042;19.224;2023-10-13T07:44:41;13.00;;;8.20;;
75246;SDS011;63844;50.042;19.224;2023-10-13T07:46:22;13.40;;;8.60;;
75246;SDS011;63844;50.042;19.224;2023-10-13T07:48:07;13.80;;;6.80;;
75246;SDS011;63844;50.042;19.224;2023-10-13T07:49:57;11.50;;;6.70;;
75246;SDS011;63844;50.042;19.224;2023-10-13T07:51:33;12.90;;;7.30;;
75246;SDS011;63844;50.042;19.224;2023-10-13T07:53:17;12.50;;;6.60;;
75246;SDS011;63844;50.042;19.224;2023-10-13T07:54:58;12.80;;;6.40;;
75246;SDS011;63844;50.042;19.224;2023-10-13T07:56:47;13.70;;;6.10;;
75246;SDS011;63844;50.042;19.224;2023-10-13T07:58:24;9.50;;;5.80;;
75246;SDS011;63844;50.042;19.224;2023-10-13T08:00:01;11.50;;;5.80;;
75246;SDS011;63844;50.042;19.224;2023-10-13T08:02:02;10.80;;;5.70;;
75246;SDS011;63844;50.042;19.224;2023-10-13T08:03:51;9.20;;;5.50;;
75246;SDS011;63844;50.042;19.224;2023-10-13T08:05:40;8.80;;;5.60;;
75246;SDS011;63844;50.042;19.224;2023-10-13T08:07:36;11.40;;;5.80;;
75246;SDS011;63844;50.042;19.224;2023-10-13T08:09:16;9.90;;;5.60;;
75246;SDS011;63844;50.042;19.224;2023-10-13T08:11:16;8.70;;;5.70;;
75246;SDS011;63844;50.042;19.224;2023-10-13T08:12:59;11.20;;;6.00;;
75246;SDS011;63844;50.042;19.224;2023-10-13T08:14:36;12.60;;;5.30;;
75246;SDS011;63844;50.042;19.224;2023-10-13T08:16:14;10.30;;;5.00;;
75246;SDS011;63844;50.042;19.224;2023-10-13T08:17:59;11.10;;;4.80;;
75246;SDS011;63844;50.042;19.224;2023-10-13T08:19:41;10.30;;;6.00;;
75246;SDS011;63844;50.042;19.224;2023-10-13T08:21:21;9.10;;;4.80;;
75246;SDS011;63844;50.042;19.224;2023-10-13T08:23:00;10.70;;;5.80;;
75246;SDS011;63844;50.042;19.224;2023-10-13T08:24:51;9.60;;;6.00;;
75246;SDS011;63844;50.042;19.224;2023-10-13T08:26:28;10.60;;;5.20;;
75246;SDS011;63844;50.042;19.224;2023-10-13T08:28:13;12.70;;;5.70;;
75246;SDS011;63844;50.042;19.224;2023-10-13T08:30:08;8.60;;;4.70;;
75246;SDS011;63844;50.042;19.224;2023-10-13T08:32:05;10.40;;;4.70;;
75246;SDS011;63844;50.042;19.224;2023-10-13T08:33:58;14.90;;;4.60;;
75246;SDS011;63844;50.042;19.224;2023-10-13T08:35:51;10.80;;;5.10;;
75246;SDS011;63844;50.042;19.224;2023-10-13T08:37:31;9.40;;;5.00;;
75246;SDS011;63844;50.042;19.224;2023-10-13T08:39:11;12.80;;;5.50;;
75246;SDS011;63844;50.042;19.224;2023-10-13T08:41:06;8.40;;;4.80;;
75246;SDS011;63844;50.042;19.224;2023-10-13T08:42:55;10.50;;;5.40;;
75246;SDS011;63844;50.042;19.224;2023-10-13T08:44:43;9.70;;;5.20;;
75246;SDS011;63844;50.042;19.224;2023-10-13T08:46:28;8.00;;;4.50;;
75246;SDS011;63844;50.042;19.224;2023-10-13T08:48:14;7.50;;;4.60;;
75246;SDS011;63844;50.042;19.224;2023-10-13T08:49:51;7.20;;;4.20;;
75246;SDS011;63844;50.042;19.224;2023-10-13T08:51:46;7.60;;;4.20;;
75246;SDS011;63844;50.042;19.224;2023-10-13T08:53:25;9.50;;;4.70;;
75246;SDS011;63844;50.042;19.224;2023-10-13T08:55:20;10.10;;;4.10;;
75246;SDS011;63844;50.042;19.224;2023-10-13T08:57:15;9.90;;;3.90;;
75246;SDS011;63844;50.042;19.224;2023-10-13T08:59:10;8.00;;;4.50;;
75246;SDS011;63844;50.042;19.224;2023-10-13T09:00:58;8.90;;;3.90;;
75246;SDS011;63844;50.042;19.224;2023-10-13T09:02:50;12.30;;;3.70;;
75246;SDS011;63844;50.042;19.224;2023-10-13T09:04:56;7.60;;;4.30;;
75246;SDS011;63844;50.042;19.224;2023-10-13T09:06:35;7.70;;;4.10;;
75246;SDS011;63844;50.042;19.224;2023-10-13T09:08:12;11.70;;;5.20;;
75246;SDS011;63844;50.042;19.224;2023-10-13T09:09:53;9.70;;;4.80;;
75246;SDS011;63844;50.042;19.224;2023-10-13T09:11:31;10.90;;;4.90;;
75246;SDS011;63844;50.042;19.224;2023-10-13T09:13:13;8.00;;;4.70;;
75246;SDS011;63844;50.042;19.224;2023-10-13T09:14:56;7.10;;;3.90;;
75246;SDS011;63844;50.042;19.224;2023-10-13T09:16:33;8.80;;;4.20;;
75246;SDS011;63844;50.042;19.224;2023-10-13T09:18:25;10.00;;;3.80;;
75246;SDS011;63844;50.042;19.224;2023-10-13T09:20:28;8.30;;;3.80;;
75246;SDS011;63844;50.042;19.224;2023-10-13T09:22:24;7.80;;;3.70;;
75246;SDS011;63844;50.042;19.224;2023-10-13T09:24:11;10.80;;;4.60;;
75246;SDS011;63844;50.042;19.224;2023-10-13T09:26:04;7.90;;;4.00;;
75246;SDS011;63844;50.042;19.224;2023-10-13T09:27:48;9.10;;;3.90;;
75246;SDS011;63844;50.042;19.224;2023-10-13T09:29:29;7.40;;;3.90;;
75246;SDS011;63844;50.042;19.224;2023-10-13T09:31:06;7.20;;;3.90;;
75246;SDS011;63844;50.042;19.224;2023-10-13T09:32:46;6.60;;;3.60;;
75246;SDS011;63844;50.042;19.224;2023-10-13T09:34:25;6.10;;;3.10;;
75246;SDS011;63844;50.042;19.224;2023-10-13T09:36:05;8.40;;;3.70;;
75246;SDS011;63844;50.042;19.224;2023-10-13T09:37:43;9.80;;;3.80;;
75246;SDS011;63844;50.042;19.224;2023-10-13T09:39:25;11.10;;;3.70;;
75246;SDS011;63844;50.042;19.224;2023-10-13T09:41:31;9.50;;;3.70;;
75246;SDS011;63844;50.042;19.224;2023-10-13T09:43:08;6.90;;;3.20;;
75246;SDS011;63844;50.042;19.224;2023-10-13T09:44:45;8.10;;;3.80;;
75246;SDS011;63844;50.042;19.224;2023-10-13T09:46:37;5.90;;;3.30;;
75246;SDS011;63844;50.042;19.224;2023-10-13T09:50:02;7.50;;;3.70;;
75246;SDS011;63844;50.042;19.224;2023-10-13T09:51:42;5.20;;;3.20;;
75246;SDS011;63844;50.042;19.224;2023-10-13T09:53:21;6.10;;;4.00;;
75246;SDS011;63844;50.042;19.224;2023-10-13T09:55:05;5.70;;;3.60;;
75246;SDS011;63844;50.042;19.224;2023-10-13T09:56:55;5.70;;;3.90;;
75246;SDS011;63844;50.042;19.224;2023-10-13T10:00:29;8.20;;;4.00;;
75246;SDS011;63844;50.042;19.224;2023-10-13T10:02:17;8.70;;;3.70;;
75246;SDS011;63844;50.042;19.224;2023-10-13T10:04:07;9.20;;;3.80;;
75246;SDS011;63844;50.042;19.224;2023-10-13T10:05:57;6.40;;;3.40;;
75246;SDS011;63844;50.042;19.224;2023-10-13T10:07:56;8.00;;;3.60;;
75246;SDS011;63844;50.042;19.224;2023-10-13T10:09:37;7.10;;;3.40;;
75246;SDS011;63844;50.042;19.224;2023-10-13T10:11:19;8.40;;;4.50;;
75246;SDS011;63844;50.042;19.224;2023-10-13T10:13:12;9.80;;;4.60;;
75246;SDS011;63844;50.042;19.224;2023-10-13T10:15:06;7.90;;;4.00;;
75246;SDS011;63844;50.042;19.224;2023-10-13T10:16:54;6.50;;;2.80;;
75246;SDS011;63844;50.042;19.224;2023-10-13T10:18:43;10.70;;;4.50;;
75246;SDS011;63844;50.042;19.224;2023-10-13T10:20:33;7.30;;;3.70;;
75246;SDS011;63844;50.042;19.224;2023-10-13T10:22:30;6.80;;;3.30;;
75246;SDS011;63844;50.042;19.224;2023-10-13T10:24:15;6.80;;;3.60;;
75246;SDS011;63844;50.042;19.224;2023-10-13T10:26:12;8.00;;;3.90;;